METAR Data
IDs: Format: Raw Decoded Include TAF

Data at: 2038 UTC 14 Dec 2018

KPYX 142035Z AUTO 36011KT 10SM CLR 12/M14 A3024 RMK AO2 T01191136
KPYX 142015Z AUTO 36010G17KT 10SM CLR 12/M13 A3025 RMK AO2 T01151135
KPYX 141955Z AUTO 01012G16KT 10SM CLR 11/M14 A3025 RMK AO2 T01081139
KPYX 141935Z AUTO 36010G17KT 10SM CLR 11/M13 A3026 RMK AO2 T01051131
KPYX 141915Z AUTO 35010G15KT 10SM CLR 10/M12 A3027 RMK AO2 T01011119
KPYX 141855Z AUTO 01012G17KT 10SM CLR 10/M11 A3027 RMK AO2 T00971114
KPYX 141835Z AUTO 36014KT 10SM CLR 09/M11 A3029 RMK AO2 T00901112
KPYX 141815Z AUTO 36013KT 10SM CLR 09/M10 A3029 RMK AO2 T00861100
KPYX 141755Z AUTO 36014G19KT 10SM CLR 08/M10 A3030 RMK AO2 T00791099 10079 21070
KPYX 141735Z AUTO 34013G18KT 10SM CLR 07/M09 A3031 RMK AO2 T00711094
KPYX 141715Z AUTO 34012KT 10SM CLR 06/M09 A3032 RMK AO2 T00591095
KPYX 141655Z AUTO 34013KT 10SM CLR 05/M10 A3032 RMK AO2 T00491101
KPYX 141635Z AUTO 33012KT 10SM CLR 04/M09 A3032 RMK AO2 T00431094
KPYX 141615Z AUTO 33011KT 10SM CLR 03/M09 A3032 RMK AO2 T00261092
KPYX 141555Z AUTO 32012KT 10SM CLR 01/M09 A3031 RMK AO2 T00111095
KPYX 141535Z AUTO 32009KT 10SM CLR 00/M09 A3030 RMK AO2 T10031093
KPYX 141515Z AUTO 32010KT 10SM CLR M02/M09 A3029 RMK AO2 T10161091
KPYX 141455Z AUTO 32011KT 10SM CLR M03/M09 A3027 RMK AO2 T10331093
KPYX 141435Z AUTO 32010KT 10SM CLR M05/M10 A3027 RMK AO2 T10541097
KPYX 141415Z AUTO 32008KT 10SM CLR M07/M10 A3027 RMK AO2 T10681105
KPYX 141355Z AUTO 32009KT 10SM CLR M06/M11 A3027 RMK AO2 T10641107
KPYX 141335Z AUTO 32010KT 10SM CLR M06/M10 A3026 RMK AO2 T10561102
KPYX 141315Z AUTO 32010KT 10SM CLR M06/M10 A3026 RMK AO2 T10601103
KPYX 141255Z AUTO 32010KT 10SM CLR M06/M10 A3025 RMK AO2 T10581103
KPYX 141235Z AUTO 33007KT 10SM CLR M05/M10 A3025 RMK AO2 T10551101
KPYX 141215Z AUTO 31008KT 10SM CLR M06/M10 A3024 RMK AO2 T10631104
KPYX 141155Z AUTO 32009KT 10SM CLR M06/M10 A3023 RMK AO2 T10621104 10000 21065
KPYX 141135Z AUTO 32009KT 10SM CLR M06/M10 A3023 RMK AO2 T10611102
KPYX 141115Z AUTO 32009KT 10SM CLR M06/M10 A3023 RMK AO2 T10611102
KPYX 141055Z AUTO 30005KT 10SM CLR M06/M10 A3023 RMK AO2 T10611104
KPYX 141035Z AUTO 32007KT 10SM CLR M06/M10 A3022 RMK AO2 T10561101
KPYX 141015Z AUTO 32008KT 10SM CLR M05/M10 A3023 RMK AO2 T10491099
KPYX 140955Z AUTO 32011KT 10SM CLR M04/M09 A3022 RMK AO2 T10401095
KPYX 140935Z AUTO 32011KT 10SM CLR M03/M09 A3022 RMK AO2 T10311092
KPYX 140915Z AUTO 33010KT 10SM CLR M02/M09 A3022 RMK AO2 T10211092
KPYX 140855Z AUTO 34010KT 10SM CLR M02/M09 A3021 RMK AO2 T10181090
KPYX 140835Z AUTO 35013KT 10SM CLR M02/M09 A3022 RMK AO2 T10171088
KPYX 140815Z AUTO 35014KT 10SM CLR M02/M09 A3021 RMK AO2 T10181087
KPYX 140755Z AUTO 35013KT 10SM CLR M01/M08 A3021 RMK AO2 T10131085
KPYX 140735Z AUTO 36012KT 10SM CLR M01/M08 A3021 RMK AO2 T10111085
KPYX 140715Z AUTO 36016G22KT 10SM CLR 00/M08 A3021 RMK AO2 T10041085
KPYX 140655Z AUTO 35018G22KT 10SM CLR 00/M08 A3021 RMK AO2 T00001082
KPYX 140635Z AUTO 35015G20KT 10SM CLR 00/M08 A3021 RMK AO2 T10021081
KPYX 140615Z AUTO 35015KT 10SM CLR 00/M08 A3021 RMK AO2 T00001081
KPYX 140555Z AUTO 35017KT 10SM CLR 00/M08 A3020 RMK AO2 T00001080 10050 20000 400840000
KPYX 140535Z AUTO 35017KT 10SM CLR 00/M08 A3020 RMK AO2 T00031078
KPYX 140515Z AUTO 35017G22KT 10SM CLR 01/M08 A3020 RMK AO2 T00051077
KPYX 140455Z AUTO 35017KT 10SM CLR 01/M08 A3020 RMK AO2 T00061077
KPYX 140435Z AUTO 35016KT 10SM CLR 01/M07 A3020 RMK AO2 T00081075
KPYX 140415Z AUTO 35016KT 10SM CLR 01/M07 A3019 RMK AO2 T00091074
KPYX 140355Z AUTO 35017KT 10SM CLR 01/M07 A3018 RMK AO2 T00131075
KPYX 140335Z AUTO 35017KT 10SM CLR 02/M07 A3017 RMK AO2 T00161075
KPYX 140315Z AUTO 35019G25KT 10SM CLR 02/M07 A3016 RMK AO2 T00201075
KPYX 140255Z AUTO 36020G27KT 10SM CLR 02/M08 A3015 RMK AO2 T00221076
KPYX 140235Z AUTO 36020KT 10SM CLR 03/M08 A3015 RMK AO2 T00251079
KPYX 140215Z AUTO 36020G24KT 10SM CLR 03/M08 A3015 RMK AO2 T00271082
KPYX 140155Z AUTO 36020G26KT 10SM CLR 03/M08 A3014 RMK AO2 T00301080
KPYX 140135Z AUTO 36020G26KT 10SM CLR 03/M08 A3014 RMK AO2 T00341080
KPYX 140115Z AUTO 36023G31KT 10SM CLR 04/M08 A3014 RMK AO2 T00401081
KPYX 140055Z AUTO 36022G29KT 10SM CLR 04/M08 A3013 RMK AO2 T00411085
KPYX 140035Z AUTO 36025G31KT 10SM CLR 05/M08 A3012 RMK AO2 T00451085
KPYX 140015Z AUTO 36022G30KT 10SM CLR 05/M09 A3011 RMK AO2 T00461087
KPYX 132355Z AUTO 36023G34KT 10SM CLR 05/M09 A3009 RMK AO2 T00511086 10084 20051
KPYX 132335Z AUTO 36024G34KT 10SM CLR 06/M09 A3008 RMK AO2 T00571087
KPYX 132315Z AUTO 36026G39KT 10SM CLR 07/M09 A3007 RMK AO2 T00651088
KPYX 132255Z AUTO 36029G40KT 10SM CLR 07/M08 A3007 RMK AO2 T00701085
KPYX 132235Z AUTO 36037G44KT 10SM CLR 08/M08 A3006 RMK AO2 T00751078
KPYX 132215Z AUTO 36035G42KT 10SM CLR 08/M07 A3006 RMK AO2 T00791071
KPYX 132155Z AUTO 36033G41KT 10SM CLR 08/M06 A3005 RMK AO2 T00811059
KPYX 132135Z AUTO 36034G43KT 10SM CLR 08/M04 A3004 RMK AO2 T00811045
KPYX 132115Z AUTO 36035G45KT 10SM CLR 08/M04 A3004 RMK AO2 T00821042
KPYX 132055Z AUTO 36034G46KT 10SM CLR 08/M04 A3003 RMK AO2 T00811044
KPYX 132035Z AUTO 36033G42KT 10SM CLR 08/M04 A3003 RMK AO2 T00761040
KPYX 132015Z AUTO 36036G43KT 10SM CLR 07/M04 A3003 RMK AO2 T00711041
KPYX 131955Z AUTO 36037G44KT 10SM CLR 07/M04 A3003 RMK AO2 T00701036
KPYX 131935Z AUTO 01029G46KT 10SM CLR 07/M04 A3003 RMK AO2 T00661036
KPYX 131915Z AUTO 35033G44KT 10SM CLR 07/M04 A3003 RMK AO2 T00711036
KPYX 131855Z AUTO 35033G41KT 10SM CLR 07/M04 A3003 RMK AO2 T00701040
KPYX 131835Z AUTO 36030G39KT 10SM CLR 07/M04 A3004 RMK AO2 T00701040
KPYX 131815Z AUTO 36034G42KT 10SM CLR 07/M04 A3004 RMK AO2 T00701038
KPYX 131755Z AUTO 01033G40KT 10SM CLR 07/M03 A3004 RMK AO2 T00661033 10066 20041
KPYX 131735Z AUTO 01028G38KT 10SM SCT120 06/M03 A3004 RMK AO2 T00581030
KPYX 131715Z AUTO 36035G42KT 10SM SCT110 06/M03 A3005 RMK AO2 T00551030
KPYX 131655Z AUTO 36034G41KT 10SM BKN120 06/M03 A3005 RMK AO2 T00551032
KPYX 131635Z AUTO 36032G40KT 10SM BKN110 05/M03 A3005 RMK AO2 T00531034
KPYX 131615Z AUTO 36033G42KT 10SM OVC110 05/M03 A3004 RMK AO2 T00521035
KPYX 131555Z AUTO 36030G40KT 10SM OVC110 05/M04 A3002 RMK AO2 T00501037
KPYX 131535Z AUTO 36028G36KT 10SM OVC110 05/M03 A3002 RMK AO2 T00481035
KPYX 131515Z AUTO 36031G36KT 10SM SCT046 BKN120 05/M03 A3000 RMK AO2 T00461034
KPYX 131455Z AUTO 36027G32KT 10SM SCT046 SCT100 04/M03 A2999 RMK AO2 T00441031
KPYX 131435Z AUTO 36028G33KT 10SM SCT042 SCT100 04/M03 A2997 RMK AO2 T00421026
KPYX 131415Z AUTO 36028G35KT 10SM SCT042 04/M02 A2996 RMK AO2 T00441020
KPYX 131355Z AUTO 36022G33KT 10SM CLR 05/M01 A2995 RMK AO2 T00451015
KPYX 131335Z AUTO 36029G41KT 10SM SCT070 05/M02 A2994 RMK AO2 T00461016
KPYX 131315Z AUTO 36031G41KT 10SM SCT070 05/M02 A2992 RMK AO2 T00451019
KPYX 131255Z AUTO 36031G40KT 10SM CLR 04/M02 A2990 RMK AO2 T00421016
KPYX 131235Z AUTO 01032G40KT 10SM CLR 04/M01 A2989 RMK AO2 T00411014
KPYX 131215Z AUTO 01030G42KT 10SM CLR 04/M01 A2988 RMK AO2 T00411010
KPYX 131155Z AUTO 36030G35KT 10SM CLR 04/00 A2988 RMK AO2 T00401005 10043 20013
KPYX 131135Z AUTO 36029G36KT 10SM CLR 04/00 A2987 RMK AO2 T00401001
KPYX 131115Z AUTO 36027G38KT 10SM CLR 04/00 A2985 RMK AO2 T00390000
KPYX 131055Z AUTO 01028G39KT 10SM CLR 04/00 A2984 RMK AO2 T00400000
KPYX 131035Z AUTO 36026G32KT 10SM CLR 04/00 A2983 RMK AO2 T00370000
KPYX 131015Z AUTO 36025G32KT 10SM CLR 03/00 A2983 RMK AO2 T00321003
KPYX 130955Z AUTO 36028G34KT 10SM CLR 03/M01 A2981 RMK AO2 T00281007
KPYX 130935Z AUTO 36024G30KT 10SM CLR 02/M01 A2979 RMK AO2 T00221011
KPYX 130915Z AUTO 36025G31KT 10SM SCT009 SCT017 SCT023 02/00 A2978 RMK AO2 T00180002
KPYX 130855Z AUTO 35020KT 10SM BKN006 BKN011 BKN017 02/01 A2977 RMK AO2 T00160010